<?xml version="1.0" encoding="UTF-8" standalone="no" ?><gpx xmlns="http://www.topografix.com/GPX/1/1" xmlns:gpxx="http://www.garmin.com/xmlschemas/GpxExtensions/v3" xmlns:wptx1="http://www.garmin.com/xmlschemas/WaypointExtension/v1" xmlns:gpxtpx="http://www.garmin.com/xmlschemas/TrackPointExtension/v1" creator="GuideVTT.com" version="1.1" xmlns:xsi="http://www.w3.org/2001/XMLSchema-instance" xsi:schemaLocation="http://www.topografix.com/GPX/1/1 http://www.topografix.com/GPX/1/1/gpx.xsd http://www.garmin.com/xmlschemas/GpxExtensions/v3 http://www8.garmin.com/xmlschemas/GpxExtensionsv3.xsd http://www.garmin.com/xmlschemas/WaypointExtension/v1 http://www8.garmin.com/xmlschemas/WaypointExtensionv1.xsd http://www.garmin.com/xmlschemas/TrackPointExtension/v1 http://www.garmin.com/xmlschemas/TrackPointExtensionv1.xsd">
<metadata><link href="http://www.garmin.com"><text>Garmin International</text></link><time>2013-06-22T15:13:50Z</time></metadata>
<trk><name>vbar-test3.gpx</name><extensions><gpxx:TrackExtension><gpxx:DisplayColor>Cyan</gpxx:DisplayColor></gpxx:TrackExtension></extensions><trkseg>
<trkpt lat="46.40089" lon="6.17168"><ele></ele><time>2024-7-17T18:26:23Z</time></trkpt>
<trkpt lat="46.40083" lon="6.17178"><ele></ele><time>2024-7-17T18:26:26Z</time></trkpt>
<trkpt lat="46.40077" lon="6.17188"><ele></ele><time>2024-7-17T18:26:29Z</time></trkpt>
<trkpt lat="46.4007" lon="6.17199"><ele></ele><time>2024-7-17T18:26:32Z</time></trkpt>
<trkpt lat="46.40063" lon="6.17191"><ele></ele><time>2024-7-17T18:26:35Z</time></trkpt>
<trkpt lat="46.40056" lon="6.17183"><ele></ele><time>2024-7-17T18:26:38Z</time></trkpt>
<trkpt lat="46.40049" lon="6.17175"><ele></ele><time>2024-7-17T18:26:41Z</time></trkpt>
<trkpt lat="46.40042" lon="6.17167"><ele></ele><time>2024-7-17T18:26:44Z</time></trkpt>
<trkpt lat="46.40035" lon="6.17159"><ele></ele><time>2024-7-17T18:26:47Z</time></trkpt>
<trkpt lat="46.40028" lon="6.1715"><ele></ele><time>2024-7-17T18:26:50Z</time></trkpt>
<trkpt lat="46.40021" lon="6.17142"><ele></ele><time>2024-7-17T18:26:53Z</time></trkpt>
<trkpt lat="46.40014" lon="6.17134"><ele></ele><time>2024-7-17T18:26:56Z</time></trkpt>
<trkpt lat="46.40007" lon="6.17126"><ele></ele><time>2024-7-17T18:26:59Z</time></trkpt>
<trkpt lat="46.4" lon="6.17118"><ele></ele><time>2024-7-17T18:27:2Z</time></trkpt>
<trkpt lat="46.39993" lon="6.1711"><ele></ele><time>2024-7-17T18:27:5Z</time></trkpt>
<trkpt lat="46.39983" lon="6.17097"><ele></ele><time>2024-7-17T18:27:8Z</time></trkpt>
<trkpt lat="46.39983" lon="6.17087"><ele></ele><time>2024-7-17T18:27:11Z</time></trkpt>
<trkpt lat="46.39989" lon="6.17077"><ele></ele><time>2024-7-17T18:27:14Z</time></trkpt>
<trkpt lat="46.39998" lon="6.17062"><ele></ele><time>2024-7-17T18:27:17Z</time></trkpt>
<trkpt lat="46.40002" lon="6.17051"><ele></ele><time>2024-7-17T18:27:20Z</time></trkpt>
<trkpt lat="46.40007" lon="6.1704"><ele></ele><time>2024-7-17T18:27:23Z</time></trkpt>
<trkpt lat="46.40012" lon="6.17029"><ele></ele><time>2024-7-17T18:27:26Z</time></trkpt>
<trkpt lat="46.40016" lon="6.17017"><ele></ele><time>2024-7-17T18:27:29Z</time></trkpt>
<trkpt lat="46.40021" lon="6.17006"><ele></ele><time>2024-7-17T18:27:32Z</time></trkpt>
<trkpt lat="46.40026" lon="6.16995"><ele></ele><time>2024-7-17T18:27:35Z</time></trkpt>
<trkpt lat="46.4003" lon="6.16984"><ele></ele><time>2024-7-17T18:27:38Z</time></trkpt>
<trkpt lat="46.40035" lon="6.16973"><ele></ele><time>2024-7-17T18:27:41Z</time></trkpt>
<trkpt lat="46.4004" lon="6.16962"><ele></ele><time>2024-7-17T18:27:44Z</time></trkpt>
<trkpt lat="46.40044" lon="6.16951"><ele></ele><time>2024-7-17T18:27:47Z</time></trkpt>
<trkpt lat="46.40048" lon="6.16942"><ele></ele><time>2024-7-17T18:27:50Z</time></trkpt>
<trkpt lat="46.40041" lon="6.16934"><ele></ele><time>2024-7-17T18:27:53Z</time></trkpt>
<trkpt lat="46.40034" lon="6.16926"><ele></ele><time>2024-7-17T18:27:56Z</time></trkpt>
<trkpt lat="46.40027" lon="6.16917"><ele></ele><time>2024-7-17T18:27:59Z</time></trkpt>
<trkpt lat="46.4002" lon="6.16909"><ele></ele><time>2024-7-17T18:28:2Z</time></trkpt>
<trkpt lat="46.40013" lon="6.16901"><ele></ele><time>2024-7-17T18:28:5Z</time></trkpt>
<trkpt lat="46.40006" lon="6.16893"><ele></ele><time>2024-7-17T18:28:8Z</time></trkpt>
<trkpt lat="46.39999" lon="6.16884"><ele></ele><time>2024-7-17T18:28:11Z</time></trkpt>
<trkpt lat="46.39992" lon="6.16876"><ele></ele><time>2024-7-17T18:28:14Z</time></trkpt>
<trkpt lat="46.39986" lon="6.16868"><ele></ele><time>2024-7-17T18:28:17Z</time></trkpt>
<trkpt lat="46.39976" lon="6.16856"><ele></ele><time>2024-7-17T18:28:20Z</time></trkpt>
<trkpt lat="46.39969" lon="6.16847"><ele></ele><time>2024-7-17T18:28:23Z</time></trkpt>
<trkpt lat="46.39962" lon="6.16838"><ele></ele><time>2024-7-17T18:28:26Z</time></trkpt>
<trkpt lat="46.39956" lon="6.16829"><ele></ele><time>2024-7-17T18:28:29Z</time></trkpt>
<trkpt lat="46.39949" lon="6.1682"><ele></ele><time>2024-7-17T18:28:32Z</time></trkpt>
<trkpt lat="46.39943" lon="6.16812"><ele></ele><time>2024-7-17T18:28:35Z</time></trkpt>
<trkpt lat="46.39936" lon="6.16803"><ele></ele><time>2024-7-17T18:28:38Z</time></trkpt>
<trkpt lat="46.39929" lon="6.16794"><ele></ele><time>2024-7-17T18:28:41Z</time></trkpt>
<trkpt lat="46.3992" lon="6.16782"><ele></ele><time>2024-7-17T18:28:44Z</time></trkpt>
<trkpt lat="46.39914" lon="6.16772"><ele></ele><time>2024-7-17T18:28:47Z</time></trkpt>
<trkpt lat="46.39907" lon="6.16763"><ele></ele><time>2024-7-17T18:28:50Z</time></trkpt>
<trkpt lat="46.39901" lon="6.16754"><ele></ele><time>2024-7-17T18:28:53Z</time></trkpt>
<trkpt lat="46.39895" lon="6.16744"><ele></ele><time>2024-7-17T18:28:56Z</time></trkpt>
<trkpt lat="46.39889" lon="6.16735"><ele></ele><time>2024-7-17T18:28:59Z</time></trkpt>
<trkpt lat="46.39882" lon="6.16726"><ele></ele><time>2024-7-17T18:29:2Z</time></trkpt>
<trkpt lat="46.39876" lon="6.16716"><ele></ele><time>2024-7-17T18:29:5Z</time></trkpt>
<trkpt lat="46.3987" lon="6.16707"><ele></ele><time>2024-7-17T18:29:8Z</time></trkpt>
<trkpt lat="46.39864" lon="6.16698"><ele></ele><time>2024-7-17T18:29:11Z</time></trkpt>
<trkpt lat="46.39857" lon="6.16688"><ele></ele><time>2024-7-17T18:29:14Z</time></trkpt>
<trkpt lat="46.39851" lon="6.16679"><ele></ele><time>2024-7-17T18:29:17Z</time></trkpt>
<trkpt lat="46.39845" lon="6.16669"><ele></ele><time>2024-7-17T18:29:20Z</time></trkpt>
<trkpt lat="46.39839" lon="6.1666"><ele></ele><time>2024-7-17T18:29:23Z</time></trkpt>
<trkpt lat="46.39832" lon="6.16651"><ele></ele><time>2024-7-17T18:29:26Z</time></trkpt>
<trkpt lat="46.39826" lon="6.16641"><ele></ele><time>2024-7-17T18:29:29Z</time></trkpt>
<trkpt lat="46.3982" lon="6.16632"><ele></ele><time>2024-7-17T18:29:32Z</time></trkpt>
<trkpt lat="46.39814" lon="6.16623"><ele></ele><time>2024-7-17T18:29:35Z</time></trkpt>
<trkpt lat="46.39807" lon="6.16613"><ele></ele><time>2024-7-17T18:29:38Z</time></trkpt>
<trkpt lat="46.39801" lon="6.16604"><ele></ele><time>2024-7-17T18:29:41Z</time></trkpt>
<trkpt lat="46.39795" lon="6.16595"><ele></ele><time>2024-7-17T18:29:44Z</time></trkpt>
<trkpt lat="46.39789" lon="6.16585"><ele></ele><time>2024-7-17T18:29:47Z</time></trkpt>
<trkpt lat="46.39782" lon="6.16576"><ele></ele><time>2024-7-17T18:29:50Z</time></trkpt>
<trkpt lat="46.39776" lon="6.16567"><ele></ele><time>2024-7-17T18:29:53Z</time></trkpt>
<trkpt lat="46.3977" lon="6.16557"><ele></ele><time>2024-7-17T18:29:56Z</time></trkpt>
<trkpt lat="46.39764" lon="6.16548"><ele></ele><time>2024-7-17T18:29:59Z</time></trkpt>
<trkpt lat="46.39757" lon="6.16538"><ele></ele><time>2024-7-17T18:30:2Z</time></trkpt>
<trkpt lat="46.39751" lon="6.16529"><ele></ele><time>2024-7-17T18:30:5Z</time></trkpt>
<trkpt lat="46.39745" lon="6.1652"><ele></ele><time>2024-7-17T18:30:8Z</time></trkpt>
<trkpt lat="46.39739" lon="6.1651"><ele></ele><time>2024-7-17T18:30:11Z</time></trkpt>
<trkpt lat="46.39732" lon="6.16501"><ele></ele><time>2024-7-17T18:30:14Z</time></trkpt>
<trkpt lat="46.39726" lon="6.16492"><ele></ele><time>2024-7-17T18:30:17Z</time></trkpt>
<trkpt lat="46.39722" lon="6.16486"><ele></ele><time>2024-7-17T18:30:20Z</time></trkpt>
<trkpt lat="46.39715" lon="6.16478"><ele></ele><time>2024-7-17T18:30:23Z</time></trkpt>
<trkpt lat="46.39708" lon="6.1647"><ele></ele><time>2024-7-17T18:30:26Z</time></trkpt>
<trkpt lat="46.39701" lon="6.16461"><ele></ele><time>2024-7-17T18:30:29Z</time></trkpt>
<trkpt lat="46.39694" lon="6.16453"><ele></ele><time>2024-7-17T18:30:32Z</time></trkpt>
<trkpt lat="46.39687" lon="6.16445"><ele></ele><time>2024-7-17T18:30:35Z</time></trkpt>
<trkpt lat="46.3968" lon="6.16437"><ele></ele><time>2024-7-17T18:30:38Z</time></trkpt>
<trkpt lat="46.39672" lon="6.16427"><ele></ele><time>2024-7-17T18:30:41Z</time></trkpt>
<trkpt lat="46.39665" lon="6.1642"><ele></ele><time>2024-7-17T18:30:44Z</time></trkpt>
<trkpt lat="46.39657" lon="6.16412"><ele></ele><time>2024-7-17T18:30:47Z</time></trkpt>
<trkpt lat="46.3965" lon="6.16405"><ele></ele><time>2024-7-17T18:30:50Z</time></trkpt>
<trkpt lat="46.39643" lon="6.16397"><ele></ele><time>2024-7-17T18:30:53Z</time></trkpt>
<trkpt lat="46.39635" lon="6.1639"><ele></ele><time>2024-7-17T18:30:56Z</time></trkpt>
<trkpt lat="46.39628" lon="6.16383"><ele></ele><time>2024-7-17T18:30:59Z</time></trkpt>
<trkpt lat="46.3962" lon="6.16375"><ele></ele><time>2024-7-17T18:31:2Z</time></trkpt>
<trkpt lat="46.39613" lon="6.16368"><ele></ele><time>2024-7-17T18:31:5Z</time></trkpt>
<trkpt lat="46.39606" lon="6.1636"><ele></ele><time>2024-7-17T18:31:8Z</time></trkpt>
<trkpt lat="46.39598" lon="6.16353"><ele></ele><time>2024-7-17T18:31:11Z</time></trkpt>
<trkpt lat="46.39594" lon="6.16348"><ele></ele><time>2024-7-17T18:31:14Z</time></trkpt>
<trkpt lat="46.39587" lon="6.1634"><ele></ele><time>2024-7-17T18:31:17Z</time></trkpt>
<trkpt lat="46.3958" lon="6.16332"><ele></ele><time>2024-7-17T18:31:20Z</time></trkpt>
<trkpt lat="46.39573" lon="6.16324"><ele></ele><time>2024-7-17T18:31:23Z</time></trkpt>
<trkpt lat="46.39566" lon="6.16316"><ele></ele><time>2024-7-17T18:31:26Z</time></trkpt>
<trkpt lat="46.39555" lon="6.16304"><ele></ele><time>2024-7-17T18:31:29Z</time></trkpt>
<trkpt lat="46.39548" lon="6.16296"><ele></ele><time>2024-7-17T18:31:32Z</time></trkpt>
<trkpt lat="46.39541" lon="6.16287"><ele></ele><time>2024-7-17T18:31:35Z</time></trkpt>
<trkpt lat="46.39534" lon="6.16279"><ele></ele><time>2024-7-17T18:31:38Z</time></trkpt>
<trkpt lat="46.39524" lon="6.16267"><ele></ele><time>2024-7-17T18:31:41Z</time></trkpt>
<trkpt lat="46.39517" lon="6.16258"><ele></ele><time>2024-7-17T18:31:44Z</time></trkpt>
<trkpt lat="46.39511" lon="6.16249"><ele></ele><time>2024-7-17T18:31:47Z</time></trkpt>
<trkpt lat="46.39504" lon="6.1624"><ele></ele><time>2024-7-17T18:31:50Z</time></trkpt>
<trkpt lat="46.39498" lon="6.16231"><ele></ele><time>2024-7-17T18:31:53Z</time></trkpt>
<trkpt lat="46.39491" lon="6.16222"><ele></ele><time>2024-7-17T18:31:56Z</time></trkpt>
<trkpt lat="46.39485" lon="6.16213"><ele></ele><time>2024-7-17T18:31:59Z</time></trkpt>
<trkpt lat="46.39478" lon="6.16203"><ele></ele><time>2024-7-17T18:32:2Z</time></trkpt>
<trkpt lat="46.39484" lon="6.16194"><ele></ele><time>2024-7-17T18:32:5Z</time></trkpt>
<trkpt lat="46.39491" lon="6.16185"><ele></ele><time>2024-7-17T18:32:8Z</time></trkpt>
<trkpt lat="46.39497" lon="6.16176"><ele></ele><time>2024-7-17T18:32:11Z</time></trkpt>
<trkpt lat="46.39504" lon="6.16167"><ele></ele><time>2024-7-17T18:32:14Z</time></trkpt>
<trkpt lat="46.3951" lon="6.16158"><ele></ele><time>2024-7-17T18:32:17Z</time></trkpt>
<trkpt lat="46.39521" lon="6.16143"><ele></ele><time>2024-7-17T18:32:20Z</time></trkpt>
<trkpt lat="46.39527" lon="6.16135"><ele></ele><time>2024-7-17T18:32:23Z</time></trkpt>
<trkpt lat="46.39534" lon="6.16126"><ele></ele><time>2024-7-17T18:32:26Z</time></trkpt>
<trkpt lat="46.39541" lon="6.16117"><ele></ele><time>2024-7-17T18:32:29Z</time></trkpt>
<trkpt lat="46.39547" lon="6.16109"><ele></ele><time>2024-7-17T18:32:32Z</time></trkpt>
<trkpt lat="46.39554" lon="6.161"><ele></ele><time>2024-7-17T18:32:35Z</time></trkpt>
<trkpt lat="46.39561" lon="6.16092"><ele></ele><time>2024-7-17T18:32:38Z</time></trkpt>
<trkpt lat="46.39568" lon="6.16083"><ele></ele><time>2024-7-17T18:32:41Z</time></trkpt>
<trkpt lat="46.39574" lon="6.16074"><ele></ele><time>2024-7-17T18:32:44Z</time></trkpt>
<trkpt lat="46.39581" lon="6.16066"><ele></ele><time>2024-7-17T18:32:47Z</time></trkpt>
<trkpt lat="46.39588" lon="6.16057"><ele></ele><time>2024-7-17T18:32:50Z</time></trkpt>
<trkpt lat="46.39594" lon="6.16048"><ele></ele><time>2024-7-17T18:32:53Z</time></trkpt>
<trkpt lat="46.39601" lon="6.1604"><ele></ele><time>2024-7-17T18:32:56Z</time></trkpt>
<trkpt lat="46.39608" lon="6.16031"><ele></ele><time>2024-7-17T18:32:59Z</time></trkpt>
<trkpt lat="46.39615" lon="6.16022"><ele></ele><time>2024-7-17T18:33:2Z</time></trkpt>
<trkpt lat="46.39621" lon="6.16014"><ele></ele><time>2024-7-17T18:33:5Z</time></trkpt>
<trkpt lat="46.39628" lon="6.16005"><ele></ele><time>2024-7-17T18:33:8Z</time></trkpt>
<trkpt lat="46.39635" lon="6.15997"><ele></ele><time>2024-7-17T18:33:11Z</time></trkpt>
<trkpt lat="46.39642" lon="6.15988"><ele></ele><time>2024-7-17T18:33:14Z</time></trkpt>
<trkpt lat="46.39648" lon="6.15979"><ele></ele><time>2024-7-17T18:33:17Z</time></trkpt>
<trkpt lat="46.39655" lon="6.15971"><ele></ele><time>2024-7-17T18:33:20Z</time></trkpt>
<trkpt lat="46.39662" lon="6.15962"><ele></ele><time>2024-7-17T18:33:23Z</time></trkpt>
<trkpt lat="46.39668" lon="6.15953"><ele></ele><time>2024-7-17T18:33:26Z</time></trkpt>
<trkpt lat="46.39675" lon="6.15945"><ele></ele><time>2024-7-17T18:33:29Z</time></trkpt>
<trkpt lat="46.39682" lon="6.15936"><ele></ele><time>2024-7-17T18:33:32Z</time></trkpt>
<trkpt lat="46.39689" lon="6.15928"><ele></ele><time>2024-7-17T18:33:35Z</time></trkpt>
<trkpt lat="46.39698" lon="6.15916"><ele></ele><time>2024-7-17T18:33:38Z</time></trkpt>
<trkpt lat="46.39705" lon="6.15907"><ele></ele><time>2024-7-17T18:33:41Z</time></trkpt>
<trkpt lat="46.39712" lon="6.15899"><ele></ele><time>2024-7-17T18:33:44Z</time></trkpt>
<trkpt lat="46.39718" lon="6.1589"><ele></ele><time>2024-7-17T18:33:47Z</time></trkpt>
<trkpt lat="46.39725" lon="6.15882"><ele></ele><time>2024-7-17T18:33:50Z</time></trkpt>
<trkpt lat="46.39732" lon="6.15873"><ele></ele><time>2024-7-17T18:33:53Z</time></trkpt>
<trkpt lat="46.39739" lon="6.15865"><ele></ele><time>2024-7-17T18:33:56Z</time></trkpt>
<trkpt lat="46.39746" lon="6.15856"><ele></ele><time>2024-7-17T18:33:59Z</time></trkpt>
<trkpt lat="46.39753" lon="6.15848"><ele></ele><time>2024-7-17T18:34:2Z</time></trkpt>
<trkpt lat="46.39759" lon="6.15839"><ele></ele><time>2024-7-17T18:34:5Z</time></trkpt>
<trkpt lat="46.39766" lon="6.15831"><ele></ele><time>2024-7-17T18:34:8Z</time></trkpt>
<trkpt lat="46.39773" lon="6.15823"><ele></ele><time>2024-7-17T18:34:11Z</time></trkpt>
<trkpt lat="46.3978" lon="6.15814"><ele></ele><time>2024-7-17T18:34:14Z</time></trkpt>
<trkpt lat="46.39787" lon="6.15806"><ele></ele><time>2024-7-17T18:34:17Z</time></trkpt>
<trkpt lat="46.39794" lon="6.15797"><ele></ele><time>2024-7-17T18:34:20Z</time></trkpt>
<trkpt lat="46.398" lon="6.15789"><ele></ele><time>2024-7-17T18:34:23Z</time></trkpt>
<trkpt lat="46.39807" lon="6.1578"><ele></ele><time>2024-7-17T18:34:26Z</time></trkpt>
<trkpt lat="46.39814" lon="6.15772"><ele></ele><time>2024-7-17T18:34:29Z</time></trkpt>
<trkpt lat="46.39821" lon="6.15763"><ele></ele><time>2024-7-17T18:34:32Z</time></trkpt>
<trkpt lat="46.39828" lon="6.15755"><ele></ele><time>2024-7-17T18:34:35Z</time></trkpt>
<trkpt lat="46.39834" lon="6.15746"><ele></ele><time>2024-7-17T18:34:38Z</time></trkpt>
<trkpt lat="46.39841" lon="6.15738"><ele></ele><time>2024-7-17T18:34:41Z</time></trkpt>
<trkpt lat="46.39848" lon="6.15729"><ele></ele><time>2024-7-17T18:34:44Z</time></trkpt>
<trkpt lat="46.39854" lon="6.15722"><ele></ele><time>2024-7-17T18:34:47Z</time></trkpt>
<trkpt lat="46.39852" lon="6.15704"><ele></ele><time>2024-7-17T18:34:50Z</time></trkpt>
<trkpt lat="46.39847" lon="6.15693"><ele></ele><time>2024-7-17T18:34:53Z</time></trkpt>
<trkpt lat="46.39842" lon="6.15683"><ele></ele><time>2024-7-17T18:34:56Z</time></trkpt>
<trkpt lat="46.39835" lon="6.1567"><ele></ele><time>2024-7-17T18:34:59Z</time></trkpt>
<trkpt lat="46.3983" lon="6.15661"><ele></ele><time>2024-7-17T18:35:2Z</time></trkpt>
<trkpt lat="46.39824" lon="6.15651"><ele></ele><time>2024-7-17T18:35:5Z</time></trkpt>
<trkpt lat="46.39818" lon="6.15641"><ele></ele><time>2024-7-17T18:35:8Z</time></trkpt>
<trkpt lat="46.39812" lon="6.15631"><ele></ele><time>2024-7-17T18:35:11Z</time></trkpt>
<trkpt lat="46.39806" lon="6.15621"><ele></ele><time>2024-7-17T18:35:14Z</time></trkpt>
<trkpt lat="46.398" lon="6.15612"><ele></ele><time>2024-7-17T18:35:17Z</time></trkpt>
<trkpt lat="46.39794" lon="6.15602"><ele></ele><time>2024-7-17T18:35:20Z</time></trkpt>
<trkpt lat="46.39788" lon="6.15592"><ele></ele><time>2024-7-17T18:35:23Z</time></trkpt>
<trkpt lat="46.39782" lon="6.15582"><ele></ele><time>2024-7-17T18:35:26Z</time></trkpt>
<trkpt lat="46.39776" lon="6.15572"><ele></ele><time>2024-7-17T18:35:29Z</time></trkpt>
<trkpt lat="46.39771" lon="6.15563"><ele></ele><time>2024-7-17T18:35:32Z</time></trkpt>
<trkpt lat="46.39765" lon="6.15553"><ele></ele><time>2024-7-17T18:35:35Z</time></trkpt>
<trkpt lat="46.39759" lon="6.15543"><ele></ele><time>2024-7-17T18:35:38Z</time></trkpt>
<trkpt lat="46.39753" lon="6.15533"><ele></ele><time>2024-7-17T18:35:41Z</time></trkpt>
<trkpt lat="46.39747" lon="6.15523"><ele></ele><time>2024-7-17T18:35:44Z</time></trkpt>
<trkpt lat="46.39741" lon="6.15513"><ele></ele><time>2024-7-17T18:35:47Z</time></trkpt>
<trkpt lat="46.39735" lon="6.15504"><ele></ele><time>2024-7-17T18:35:50Z</time></trkpt>
<trkpt lat="46.39729" lon="6.15494"><ele></ele><time>2024-7-17T18:35:53Z</time></trkpt>
<trkpt lat="46.39723" lon="6.15484"><ele></ele><time>2024-7-17T18:35:56Z</time></trkpt>
<trkpt lat="46.39717" lon="6.15474"><ele></ele><time>2024-7-17T18:35:59Z</time></trkpt>
<trkpt lat="46.39712" lon="6.15464"><ele></ele><time>2024-7-17T18:36:2Z</time></trkpt>
<trkpt lat="46.39706" lon="6.15455"><ele></ele><time>2024-7-17T18:36:5Z</time></trkpt>
<trkpt lat="46.397" lon="6.15445"><ele></ele><time>2024-7-17T18:36:8Z</time></trkpt>
<trkpt lat="46.39694" lon="6.15435"><ele></ele><time>2024-7-17T18:36:11Z</time></trkpt>
<trkpt lat="46.39688" lon="6.15425"><ele></ele><time>2024-7-17T18:36:14Z</time></trkpt>
<trkpt lat="46.39682" lon="6.15415"><ele></ele><time>2024-7-17T18:36:17Z</time></trkpt>
<trkpt lat="46.39676" lon="6.15405"><ele></ele><time>2024-7-17T18:36:20Z</time></trkpt>
<trkpt lat="46.3967" lon="6.15396"><ele></ele><time>2024-7-17T18:36:23Z</time></trkpt>
<trkpt lat="46.39664" lon="6.15386"><ele></ele><time>2024-7-17T18:36:26Z</time></trkpt>
<trkpt lat="46.39658" lon="6.15376"><ele></ele><time>2024-7-17T18:36:29Z</time></trkpt>
<trkpt lat="46.39653" lon="6.15366"><ele></ele><time>2024-7-17T18:36:32Z</time></trkpt>
<trkpt lat="46.39647" lon="6.15356"><ele></ele><time>2024-7-17T18:36:35Z</time></trkpt>
<trkpt lat="46.39641" lon="6.15347"><ele></ele><time>2024-7-17T18:36:38Z</time></trkpt>
<trkpt lat="46.39635" lon="6.15337"><ele></ele><time>2024-7-17T18:36:41Z</time></trkpt>
<trkpt lat="46.39629" lon="6.15327"><ele></ele><time>2024-7-17T18:36:44Z</time></trkpt>
<trkpt lat="46.39623" lon="6.15317"><ele></ele><time>2024-7-17T18:36:47Z</time></trkpt>
<trkpt lat="46.39617" lon="6.15307"><ele></ele><time>2024-7-17T18:36:50Z</time></trkpt>
<trkpt lat="46.39611" lon="6.15297"><ele></ele><time>2024-7-17T18:36:53Z</time></trkpt>
<trkpt lat="46.39605" lon="6.15288"><ele></ele><time>2024-7-17T18:36:56Z</time></trkpt>
<trkpt lat="46.39599" lon="6.15278"><ele></ele><time>2024-7-17T18:36:59Z</time></trkpt>
<trkpt lat="46.39593" lon="6.15268"><ele></ele><time>2024-7-17T18:37:2Z</time></trkpt>
<trkpt lat="46.39588" lon="6.15258"><ele></ele><time>2024-7-17T18:37:5Z</time></trkpt>
<trkpt lat="46.39582" lon="6.15249"><ele></ele><time>2024-7-17T18:37:8Z</time></trkpt>
<trkpt lat="46.39576" lon="6.15239"><ele></ele><time>2024-7-17T18:37:11Z</time></trkpt>
<trkpt lat="46.3957" lon="6.15229"><ele></ele><time>2024-7-17T18:37:14Z</time></trkpt>
<trkpt lat="46.39564" lon="6.15219"><ele></ele><time>2024-7-17T18:37:17Z</time></trkpt>
<trkpt lat="46.39558" lon="6.15209"><ele></ele><time>2024-7-17T18:37:20Z</time></trkpt>
<trkpt lat="46.39552" lon="6.15199"><ele></ele><time>2024-7-17T18:37:23Z</time></trkpt>
<trkpt lat="46.39546" lon="6.1519"><ele></ele><time>2024-7-17T18:37:26Z</time></trkpt>
<trkpt lat="46.3954" lon="6.1518"><ele></ele><time>2024-7-17T18:37:29Z</time></trkpt>
<trkpt lat="46.39534" lon="6.1517"><ele></ele><time>2024-7-17T18:37:32Z</time></trkpt>
<trkpt lat="46.39526" lon="6.15155"><ele></ele><time>2024-7-17T18:37:35Z</time></trkpt>
<trkpt lat="46.39519" lon="6.15147"><ele></ele><time>2024-7-17T18:37:38Z</time></trkpt>
<trkpt lat="46.39512" lon="6.15138"><ele></ele><time>2024-7-17T18:37:41Z</time></trkpt>
<trkpt lat="46.39505" lon="6.15129"><ele></ele><time>2024-7-17T18:37:44Z</time></trkpt>
<trkpt lat="46.39498" lon="6.15121"><ele></ele><time>2024-7-17T18:37:47Z</time></trkpt>
<trkpt lat="46.39492" lon="6.15112"><ele></ele><time>2024-7-17T18:37:50Z</time></trkpt>
<trkpt lat="46.39485" lon="6.15104"><ele></ele><time>2024-7-17T18:37:53Z</time></trkpt>
<trkpt lat="46.39478" lon="6.15095"><ele></ele><time>2024-7-17T18:37:56Z</time></trkpt>
<trkpt lat="46.39471" lon="6.15087"><ele></ele><time>2024-7-17T18:37:59Z</time></trkpt>
<trkpt lat="46.39465" lon="6.15078"><ele></ele><time>2024-7-17T18:38:2Z</time></trkpt>
<trkpt lat="46.39458" lon="6.15069"><ele></ele><time>2024-7-17T18:38:5Z</time></trkpt>
<trkpt lat="46.39451" lon="6.15061"><ele></ele><time>2024-7-17T18:38:8Z</time></trkpt>
<trkpt lat="46.39444" lon="6.15052"><ele></ele><time>2024-7-17T18:38:11Z</time></trkpt>
<trkpt lat="46.39438" lon="6.15044"><ele></ele><time>2024-7-17T18:38:14Z</time></trkpt>
<trkpt lat="46.39431" lon="6.15035"><ele></ele><time>2024-7-17T18:38:17Z</time></trkpt>
<trkpt lat="46.39424" lon="6.15027"><ele></ele><time>2024-7-17T18:38:20Z</time></trkpt>
<trkpt lat="46.39417" lon="6.15018"><ele></ele><time>2024-7-17T18:38:23Z</time></trkpt>
<trkpt lat="46.3941" lon="6.15009"><ele></ele><time>2024-7-17T18:38:26Z</time></trkpt>
<trkpt lat="46.39404" lon="6.15001"><ele></ele><time>2024-7-17T18:38:29Z</time></trkpt>
<trkpt lat="46.39397" lon="6.14992"><ele></ele><time>2024-7-17T18:38:32Z</time></trkpt>
<trkpt lat="46.3939" lon="6.14984"><ele></ele><time>2024-7-17T18:38:35Z</time></trkpt>
<trkpt lat="46.39383" lon="6.14975"><ele></ele><time>2024-7-17T18:38:38Z</time></trkpt>
<trkpt lat="46.39377" lon="6.14967"><ele></ele><time>2024-7-17T18:38:41Z</time></trkpt>
<trkpt lat="46.3937" lon="6.14958"><ele></ele><time>2024-7-17T18:38:44Z</time></trkpt>
<trkpt lat="46.39363" lon="6.1495"><ele></ele><time>2024-7-17T18:38:47Z</time></trkpt>
<trkpt lat="46.39356" lon="6.14941"><ele></ele><time>2024-7-17T18:38:50Z</time></trkpt>
<trkpt lat="46.3935" lon="6.14932"><ele></ele><time>2024-7-17T18:38:53Z</time></trkpt>
<trkpt lat="46.39343" lon="6.14924"><ele></ele><time>2024-7-17T18:38:56Z</time></trkpt>
<trkpt lat="46.39336" lon="6.14915"><ele></ele><time>2024-7-17T18:38:59Z</time></trkpt>
<trkpt lat="46.39329" lon="6.14907"><ele></ele><time>2024-7-17T18:39:2Z</time></trkpt>
<trkpt lat="46.39322" lon="6.14898"><ele></ele><time>2024-7-17T18:39:5Z</time></trkpt>
<trkpt lat="46.39315" lon="6.14888"><ele></ele><time>2024-7-17T18:39:8Z</time></trkpt>
<trkpt lat="46.39321" lon="6.14878"><ele></ele><time>2024-7-17T18:39:11Z</time></trkpt>
<trkpt lat="46.39326" lon="6.14869"><ele></ele><time>2024-7-17T18:39:14Z</time></trkpt>
<trkpt lat="46.39332" lon="6.14859"><ele></ele><time>2024-7-17T18:39:17Z</time></trkpt>
<trkpt lat="46.39338" lon="6.14849"><ele></ele><time>2024-7-17T18:39:20Z</time></trkpt>
<trkpt lat="46.39344" lon="6.14839"><ele></ele><time>2024-7-17T18:39:23Z</time></trkpt>
<trkpt lat="46.3935" lon="6.14829"><ele></ele><time>2024-7-17T18:39:26Z</time></trkpt>
<trkpt lat="46.39356" lon="6.14819"><ele></ele><time>2024-7-17T18:39:29Z</time></trkpt>
<trkpt lat="46.39362" lon="6.1481"><ele></ele><time>2024-7-17T18:39:32Z</time></trkpt>
<trkpt lat="46.39368" lon="6.148"><ele></ele><time>2024-7-17T18:39:35Z</time></trkpt>
<trkpt lat="46.39373" lon="6.1479"><ele></ele><time>2024-7-17T18:39:38Z</time></trkpt>
<trkpt lat="46.39379" lon="6.1478"><ele></ele><time>2024-7-17T18:39:41Z</time></trkpt>
<trkpt lat="46.39385" lon="6.1477"><ele></ele><time>2024-7-17T18:39:44Z</time></trkpt>
<trkpt lat="46.39391" lon="6.1476"><ele></ele><time>2024-7-17T18:39:47Z</time></trkpt>
<trkpt lat="46.39397" lon="6.1475"><ele></ele><time>2024-7-17T18:39:50Z</time></trkpt>
<trkpt lat="46.39403" lon="6.14741"><ele></ele><time>2024-7-17T18:39:53Z</time></trkpt>
<trkpt lat="46.39409" lon="6.14731"><ele></ele><time>2024-7-17T18:39:56Z</time></trkpt>
<trkpt lat="46.39415" lon="6.14721"><ele></ele><time>2024-7-17T18:39:59Z</time></trkpt>
<trkpt lat="46.3942" lon="6.14711"><ele></ele><time>2024-7-17T18:40:2Z</time></trkpt>
<trkpt lat="46.39426" lon="6.14701"><ele></ele><time>2024-7-17T18:40:5Z</time></trkpt>
<trkpt lat="46.39432" lon="6.14691"><ele></ele><time>2024-7-17T18:40:8Z</time></trkpt>
<trkpt lat="46.39438" lon="6.14682"><ele></ele><time>2024-7-17T18:40:11Z</time></trkpt>
<trkpt lat="46.39444" lon="6.14672"><ele></ele><time>2024-7-17T18:40:14Z</time></trkpt>
<trkpt lat="46.3945" lon="6.14662"><ele></ele><time>2024-7-17T18:40:17Z</time></trkpt>
<trkpt lat="46.39456" lon="6.14652"><ele></ele><time>2024-7-17T18:40:20Z</time></trkpt>
<trkpt lat="46.39462" lon="6.14642"><ele></ele><time>2024-7-17T18:40:23Z</time></trkpt>
<trkpt lat="46.39467" lon="6.14632"><ele></ele><time>2024-7-17T18:40:26Z</time></trkpt>
<trkpt lat="46.39473" lon="6.14623"><ele></ele><time>2024-7-17T18:40:29Z</time></trkpt>
<trkpt lat="46.39479" lon="6.14613"><ele></ele><time>2024-7-17T18:40:32Z</time></trkpt>
<trkpt lat="46.39485" lon="6.14603"><ele></ele><time>2024-7-17T18:40:35Z</time></trkpt>
<trkpt lat="46.39489" lon="6.14595"><ele></ele><time>2024-7-17T18:40:38Z</time></trkpt>
<trkpt lat="46.3949" lon="6.14583"><ele></ele><time>2024-7-17T18:40:41Z</time></trkpt>
<trkpt lat="46.39491" lon="6.1457"><ele></ele><time>2024-7-17T18:40:44Z</time></trkpt>
<trkpt lat="46.39493" lon="6.14556"><ele></ele><time>2024-7-17T18:40:47Z</time></trkpt>
<trkpt lat="46.39502" lon="6.14556"><ele></ele><time>2024-7-17T18:40:50Z</time></trkpt>
<trkpt lat="46.39511" lon="6.14555"><ele></ele><time>2024-7-17T18:40:53Z</time></trkpt>
<trkpt lat="46.3952" lon="6.14555"><ele></ele><time>2024-7-17T18:40:56Z</time></trkpt>
<trkpt lat="46.39529" lon="6.14554"><ele></ele><time>2024-7-17T18:40:59Z</time></trkpt>
<trkpt lat="46.39538" lon="6.14554"><ele></ele><time>2024-7-17T18:41:2Z</time></trkpt>
<trkpt lat="46.39547" lon="6.14554"><ele></ele><time>2024-7-17T18:41:5Z</time></trkpt>
<trkpt lat="46.39556" lon="6.14553"><ele></ele><time>2024-7-17T18:41:8Z</time></trkpt>
<trkpt lat="46.39565" lon="6.14553"><ele></ele><time>2024-7-17T18:41:11Z</time></trkpt>
<trkpt lat="46.39574" lon="6.14552"><ele></ele><time>2024-7-17T18:41:14Z</time></trkpt>
<trkpt lat="46.39583" lon="6.14552"><ele></ele><time>2024-7-17T18:41:17Z</time></trkpt>
<trkpt lat="46.39592" lon="6.14551"><ele></ele><time>2024-7-17T18:41:20Z</time></trkpt>
<trkpt lat="46.396" lon="6.14551"><ele></ele><time>2024-7-17T18:41:23Z</time></trkpt>
<trkpt lat="46.39609" lon="6.1455"><ele></ele><time>2024-7-17T18:41:26Z</time></trkpt>
<trkpt lat="46.39618" lon="6.1455"><ele></ele><time>2024-7-17T18:41:29Z</time></trkpt>
<trkpt lat="46.39627" lon="6.14549"><ele></ele><time>2024-7-17T18:41:32Z</time></trkpt>
<trkpt lat="46.39636" lon="6.14549"><ele></ele><time>2024-7-17T18:41:35Z</time></trkpt>
<trkpt lat="46.39645" lon="6.14548"><ele></ele><time>2024-7-17T18:41:38Z</time></trkpt>
<trkpt lat="46.39654" lon="6.14548"><ele></ele><time>2024-7-17T18:41:41Z</time></trkpt>
<trkpt lat="46.39663" lon="6.14547"><ele></ele><time>2024-7-17T18:41:44Z</time></trkpt>
<trkpt lat="46.39672" lon="6.14547"><ele></ele><time>2024-7-17T18:41:47Z</time></trkpt>
<trkpt lat="46.39681" lon="6.14546"><ele></ele><time>2024-7-17T18:41:50Z</time></trkpt>
<trkpt lat="46.3969" lon="6.14546"><ele></ele><time>2024-7-17T18:41:53Z</time></trkpt>
<trkpt lat="46.39699" lon="6.14545"><ele></ele><time>2024-7-17T18:41:56Z</time></trkpt>
<trkpt lat="46.39708" lon="6.14545"><ele></ele><time>2024-7-17T18:41:59Z</time></trkpt>
<trkpt lat="46.39717" lon="6.14544"><ele></ele><time>2024-7-17T18:42:2Z</time></trkpt>
<trkpt lat="46.39726" lon="6.14544"><ele></ele><time>2024-7-17T18:42:5Z</time></trkpt>
<trkpt lat="46.39735" lon="6.14543"><ele></ele><time>2024-7-17T18:42:8Z</time></trkpt>
<trkpt lat="46.39744" lon="6.14543"><ele></ele><time>2024-7-17T18:42:11Z</time></trkpt>
<trkpt lat="46.39753" lon="6.14542"><ele></ele><time>2024-7-17T18:42:14Z</time></trkpt>
<trkpt lat="46.39762" lon="6.14542"><ele></ele><time>2024-7-17T18:42:17Z</time></trkpt>
<trkpt lat="46.39771" lon="6.14542"><ele></ele><time>2024-7-17T18:42:20Z</time></trkpt>
<trkpt lat="46.3978" lon="6.14541"><ele></ele><time>2024-7-17T18:42:23Z</time></trkpt>
<trkpt lat="46.39789" lon="6.14541"><ele></ele><time>2024-7-17T18:42:26Z</time></trkpt>
<trkpt lat="46.39798" lon="6.1454"><ele></ele><time>2024-7-17T18:42:29Z</time></trkpt>
<trkpt lat="46.39804" lon="6.1454"><ele></ele><time>2024-7-17T18:42:32Z</time></trkpt>
<trkpt lat="46.39798" lon="6.1455"><ele></ele><time>2024-7-17T18:42:35Z</time></trkpt>
<trkpt lat="46.39793" lon="6.14561"><ele></ele><time>2024-7-17T18:42:38Z</time></trkpt>
<trkpt lat="46.39788" lon="6.14571"><ele></ele><time>2024-7-17T18:42:41Z</time></trkpt>
<trkpt lat="46.39782" lon="6.14582"><ele></ele><time>2024-7-17T18:42:44Z</time></trkpt>
<trkpt lat="46.39777" lon="6.14592"><ele></ele><time>2024-7-17T18:42:47Z</time></trkpt>
<trkpt lat="46.39772" lon="6.14603"><ele></ele><time>2024-7-17T18:42:50Z</time></trkpt>
<trkpt lat="46.39766" lon="6.14613"><ele></ele><time>2024-7-17T18:42:53Z</time></trkpt>
<trkpt lat="46.39761" lon="6.14624"><ele></ele><time>2024-7-17T18:42:56Z</time></trkpt>
<trkpt lat="46.39756" lon="6.14634"><ele></ele><time>2024-7-17T18:42:59Z</time></trkpt>
<trkpt lat="46.39751" lon="6.14645"><ele></ele><time>2024-7-17T18:43:2Z</time></trkpt>
<trkpt lat="46.39745" lon="6.14655"><ele></ele><time>2024-7-17T18:43:5Z</time></trkpt>
<trkpt lat="46.3974" lon="6.14666"><ele></ele><time>2024-7-17T18:43:8Z</time></trkpt>
<trkpt lat="46.39735" lon="6.14676"><ele></ele><time>2024-7-17T18:43:11Z</time></trkpt>
<trkpt lat="46.39726" lon="6.14693"><ele></ele><time>2024-7-17T18:43:14Z</time></trkpt>
<trkpt lat="46.39723" lon="6.14705"><ele></ele><time>2024-7-17T18:43:17Z</time></trkpt>
<trkpt lat="46.39719" lon="6.14717"><ele></ele><time>2024-7-17T18:43:20Z</time></trkpt>
<trkpt lat="46.3971" lon="6.14732"><ele></ele><time>2024-7-17T18:43:23Z</time></trkpt>
<trkpt lat="46.39701" lon="6.14734"><ele></ele><time>2024-7-17T18:43:26Z</time></trkpt>
<trkpt lat="46.39694" lon="6.14735"><ele></ele><time>2024-7-17T18:43:29Z</time></trkpt>
<trkpt lat="46.39686" lon="6.14741"><ele></ele><time>2024-7-17T18:43:32Z</time></trkpt>
<trkpt lat="46.39674" lon="6.1475"><ele></ele><time>2024-7-17T18:43:35Z</time></trkpt>
<trkpt lat="46.39668" lon="6.14765"><ele></ele><time>2024-7-17T18:43:38Z</time></trkpt>
<trkpt lat="46.39666" lon="6.14778"><ele></ele><time>2024-7-17T18:43:41Z</time></trkpt>
<trkpt lat="46.39664" lon="6.14791"><ele></ele><time>2024-7-17T18:43:44Z</time></trkpt>
<trkpt lat="46.39662" lon="6.14804"><ele></ele><time>2024-7-17T18:43:47Z</time></trkpt>
<trkpt lat="46.3966" lon="6.14815"><ele></ele><time>2024-7-17T18:43:50Z</time></trkpt>
<trkpt lat="46.39666" lon="6.14825"><ele></ele><time>2024-7-17T18:43:53Z</time></trkpt>
<trkpt lat="46.3967" lon="6.1483"><ele></ele><time>2024-7-17T18:43:56Z</time></trkpt>
<trkpt lat="46.39675" lon="6.14841"><ele></ele><time>2024-7-17T18:43:59Z</time></trkpt>
<trkpt lat="46.3968" lon="6.14852"><ele></ele><time>2024-7-17T18:44:2Z</time></trkpt>
<trkpt lat="46.39685" lon="6.14863"><ele></ele><time>2024-7-17T18:44:5Z</time></trkpt>
<trkpt lat="46.39688" lon="6.1487"><ele></ele><time>2024-7-17T18:44:8Z</time></trkpt>
<trkpt lat="46.39694" lon="6.1488"><ele></ele><time>2024-7-17T18:44:11Z</time></trkpt>
<trkpt lat="46.397" lon="6.1489"><ele></ele><time>2024-7-17T18:44:14Z</time></trkpt>
<trkpt lat="46.39706" lon="6.149"><ele></ele><time>2024-7-17T18:44:17Z</time></trkpt>
<trkpt lat="46.39711" lon="6.1491"><ele></ele><time>2024-7-17T18:44:20Z</time></trkpt>
<trkpt lat="46.39717" lon="6.14919"><ele></ele><time>2024-7-17T18:44:23Z</time></trkpt>
<trkpt lat="46.39726" lon="6.14934"><ele></ele><time>2024-7-17T18:44:26Z</time></trkpt>
<trkpt lat="46.39733" lon="6.14943"><ele></ele><time>2024-7-17T18:44:29Z</time></trkpt>
<trkpt lat="46.3974" lon="6.14952"><ele></ele><time>2024-7-17T18:44:32Z</time></trkpt>
<trkpt lat="46.39747" lon="6.1496"><ele></ele><time>2024-7-17T18:44:35Z</time></trkpt>
<trkpt lat="46.39753" lon="6.14969"><ele></ele><time>2024-7-17T18:44:38Z</time></trkpt>
<trkpt lat="46.39758" lon="6.14975"><ele></ele><time>2024-7-17T18:44:41Z</time></trkpt>
<trkpt lat="46.39765" lon="6.14966"><ele></ele><time>2024-7-17T18:44:44Z</time></trkpt>
<trkpt lat="46.39771" lon="6.14957"><ele></ele><time>2024-7-17T18:44:47Z</time></trkpt>
<trkpt lat="46.3978" lon="6.14945"><ele></ele><time>2024-7-17T18:44:50Z</time></trkpt>
<trkpt lat="46.39786" lon="6.14955"><ele></ele><time>2024-7-17T18:44:53Z</time></trkpt>
<trkpt lat="46.39792" lon="6.14965"><ele></ele><time>2024-7-17T18:44:56Z</time></trkpt>
<trkpt lat="46.398" lon="6.14979"><ele></ele><time>2024-7-17T18:44:59Z</time></trkpt>
<trkpt lat="46.39806" lon="6.14988"><ele></ele><time>2024-7-17T18:45:2Z</time></trkpt>
<trkpt lat="46.39813" lon="6.14997"><ele></ele><time>2024-7-17T18:45:5Z</time></trkpt>
<trkpt lat="46.3982" lon="6.15005"><ele></ele><time>2024-7-17T18:45:8Z</time></trkpt>
<trkpt lat="46.39827" lon="6.15014"><ele></ele><time>2024-7-17T18:45:11Z</time></trkpt>
<trkpt lat="46.39834" lon="6.15022"><ele></ele><time>2024-7-17T18:45:14Z</time></trkpt>
<trkpt lat="46.3984" lon="6.15031"><ele></ele><time>2024-7-17T18:45:17Z</time></trkpt>
<trkpt lat="46.39847" lon="6.15039"><ele></ele><time>2024-7-17T18:45:20Z</time></trkpt>
<trkpt lat="46.39854" lon="6.15048"><ele></ele><time>2024-7-17T18:45:23Z</time></trkpt>
<trkpt lat="46.39862" lon="6.15056"><ele></ele><time>2024-7-17T18:45:26Z</time></trkpt>
<trkpt lat="46.39869" lon="6.15063"><ele></ele><time>2024-7-17T18:45:29Z</time></trkpt>
<trkpt lat="46.3988" lon="6.15073"><ele></ele><time>2024-7-17T18:45:32Z</time></trkpt>
<trkpt lat="46.39889" lon="6.15074"><ele></ele><time>2024-7-17T18:45:35Z</time></trkpt>
<trkpt lat="46.39896" lon="6.15076"><ele></ele><time>2024-7-17T18:45:38Z</time></trkpt>
<trkpt lat="46.39902" lon="6.15087"><ele></ele><time>2024-7-17T18:45:41Z</time></trkpt>
<trkpt lat="46.39907" lon="6.15098"><ele></ele><time>2024-7-17T18:45:44Z</time></trkpt>
<trkpt lat="46.39914" lon="6.15106"><ele></ele><time>2024-7-17T18:45:47Z</time></trkpt>
<trkpt lat="46.39921" lon="6.15114"><ele></ele><time>2024-7-17T18:45:50Z</time></trkpt>
<trkpt lat="46.39932" lon="6.15126"><ele></ele><time>2024-7-17T18:45:53Z</time></trkpt>
<trkpt lat="46.39944" lon="6.15132"><ele></ele><time>2024-7-17T18:45:56Z</time></trkpt>
<trkpt lat="46.39953" lon="6.15132"><ele></ele><time>2024-7-17T18:45:59Z</time></trkpt>
<trkpt lat="46.39963" lon="6.15132"><ele></ele><time>2024-7-17T18:46:2Z</time></trkpt>
<trkpt lat="46.39966" lon="6.15144"><ele></ele><time>2024-7-17T18:46:5Z</time></trkpt>
<trkpt lat="46.3997" lon="6.15164"><ele></ele><time>2024-7-17T18:46:8Z</time></trkpt>
<trkpt lat="46.39978" lon="6.15171"><ele></ele><time>2024-7-17T18:46:11Z</time></trkpt>
<trkpt lat="46.39985" lon="6.15179"><ele></ele><time>2024-7-17T18:46:14Z</time></trkpt>
<trkpt lat="46.39992" lon="6.15186"><ele></ele><time>2024-7-17T18:46:17Z</time></trkpt>
<trkpt lat="46.39998" lon="6.15192"><ele></ele><time>2024-7-17T18:46:20Z</time></trkpt>
<trkpt lat="46.40005" lon="6.15201"><ele></ele><time>2024-7-17T18:46:23Z</time></trkpt>
<trkpt lat="46.40011" lon="6.1521"><ele></ele><time>2024-7-17T18:46:26Z</time></trkpt>
<trkpt lat="46.40017" lon="6.15219"><ele></ele><time>2024-7-17T18:46:29Z</time></trkpt>
<trkpt lat="46.40022" lon="6.15232"><ele></ele><time>2024-7-17T18:46:32Z</time></trkpt>
<trkpt lat="46.40021" lon="6.1525"><ele></ele><time>2024-7-17T18:46:35Z</time></trkpt>
<trkpt lat="46.40029" lon="6.15257"><ele></ele><time>2024-7-17T18:46:38Z</time></trkpt>
<trkpt lat="46.40037" lon="6.15263"><ele></ele><time>2024-7-17T18:46:41Z</time></trkpt>
<trkpt lat="46.40044" lon="6.1527"><ele></ele><time>2024-7-17T18:46:44Z</time></trkpt>
<trkpt lat="46.40052" lon="6.15277"><ele></ele><time>2024-7-17T18:46:47Z</time></trkpt>
<trkpt lat="46.4006" lon="6.15284"><ele></ele><time>2024-7-17T18:46:50Z</time></trkpt>
<trkpt lat="46.40067" lon="6.1529"><ele></ele><time>2024-7-17T18:46:53Z</time></trkpt>
<trkpt lat="46.40073" lon="6.15296"><ele></ele><time>2024-7-17T18:46:56Z</time></trkpt>
<trkpt lat="46.4008" lon="6.15304"><ele></ele><time>2024-7-17T18:46:59Z</time></trkpt>
<trkpt lat="46.40086" lon="6.15313"><ele></ele><time>2024-7-17T18:47:2Z</time></trkpt>
<trkpt lat="46.40093" lon="6.15322"><ele></ele><time>2024-7-17T18:47:5Z</time></trkpt>
<trkpt lat="46.401" lon="6.15331"><ele></ele><time>2024-7-17T18:47:8Z</time></trkpt>
<trkpt lat="46.40106" lon="6.1534"><ele></ele><time>2024-7-17T18:47:11Z</time></trkpt>
<trkpt lat="46.40113" lon="6.15349"><ele></ele><time>2024-7-17T18:47:14Z</time></trkpt>
<trkpt lat="46.40119" lon="6.15358"><ele></ele><time>2024-7-17T18:47:17Z</time></trkpt>
<trkpt lat="46.40126" lon="6.15367"><ele></ele><time>2024-7-17T18:47:20Z</time></trkpt>
<trkpt lat="46.40132" lon="6.15375"><ele></ele><time>2024-7-17T18:47:23Z</time></trkpt>
<trkpt lat="46.40139" lon="6.15384"><ele></ele><time>2024-7-17T18:47:26Z</time></trkpt>
<trkpt lat="46.40146" lon="6.15393"><ele></ele><time>2024-7-17T18:47:29Z</time></trkpt>
<trkpt lat="46.40152" lon="6.15402"><ele></ele><time>2024-7-17T18:47:32Z</time></trkpt>
<trkpt lat="46.40157" lon="6.15412"><ele></ele><time>2024-7-17T18:47:35Z</time></trkpt>
<trkpt lat="46.40163" lon="6.15422"><ele></ele><time>2024-7-17T18:47:38Z</time></trkpt>
<trkpt lat="46.40169" lon="6.15432"><ele></ele><time>2024-7-17T18:47:41Z</time></trkpt>
<trkpt lat="46.40174" lon="6.15442"><ele></ele><time>2024-7-17T18:47:44Z</time></trkpt>
<trkpt lat="46.40179" lon="6.15452"><ele></ele><time>2024-7-17T18:47:47Z</time></trkpt>
<trkpt lat="46.40184" lon="6.15463"><ele></ele><time>2024-7-17T18:47:50Z</time></trkpt>
<trkpt lat="46.40188" lon="6.15474"><ele></ele><time>2024-7-17T18:47:53Z</time></trkpt>
<trkpt lat="46.40193" lon="6.15485"><ele></ele><time>2024-7-17T18:47:56Z</time></trkpt>
<trkpt lat="46.40197" lon="6.15497"><ele></ele><time>2024-7-17T18:47:59Z</time></trkpt>
<trkpt lat="46.40202" lon="6.15508"><ele></ele><time>2024-7-17T18:48:2Z</time></trkpt>
<trkpt lat="46.40206" lon="6.15519"><ele></ele><time>2024-7-17T18:48:5Z</time></trkpt>
<trkpt lat="46.4021" lon="6.15528"><ele></ele><time>2024-7-17T18:48:8Z</time></trkpt>
<trkpt lat="46.40215" lon="6.15538"><ele></ele><time>2024-7-17T18:48:11Z</time></trkpt>
<trkpt lat="46.4022" lon="6.15549"><ele></ele><time>2024-7-17T18:48:14Z</time></trkpt>
<trkpt lat="46.40226" lon="6.15559"><ele></ele><time>2024-7-17T18:48:17Z</time></trkpt>
<trkpt lat="46.40231" lon="6.1557"><ele></ele><time>2024-7-17T18:48:20Z</time></trkpt>
<trkpt lat="46.40236" lon="6.1558"><ele></ele><time>2024-7-17T18:48:23Z</time></trkpt>
<trkpt lat="46.40242" lon="6.15591"><ele></ele><time>2024-7-17T18:48:26Z</time></trkpt>
<trkpt lat="46.40247" lon="6.15601"><ele></ele><time>2024-7-17T18:48:29Z</time></trkpt>
<trkpt lat="46.40252" lon="6.15612"><ele></ele><time>2024-7-17T18:48:32Z</time></trkpt>
<trkpt lat="46.40258" lon="6.15622"><ele></ele><time>2024-7-17T18:48:35Z</time></trkpt>
<trkpt lat="46.40263" lon="6.15633"><ele></ele><time>2024-7-17T18:48:38Z</time></trkpt>
<trkpt lat="46.40268" lon="6.15643"><ele></ele><time>2024-7-17T18:48:41Z</time></trkpt>
<trkpt lat="46.40274" lon="6.15654"><ele></ele><time>2024-7-17T18:48:44Z</time></trkpt>
<trkpt lat="46.40279" lon="6.15664"><ele></ele><time>2024-7-17T18:48:47Z</time></trkpt>
<trkpt lat="46.40283" lon="6.15672"><ele></ele><time>2024-7-17T18:48:50Z</time></trkpt>
<trkpt lat="46.40276" lon="6.15681"><ele></ele><time>2024-7-17T18:48:53Z</time></trkpt>
<trkpt lat="46.4027" lon="6.1569"><ele></ele><time>2024-7-17T18:48:56Z</time></trkpt>
<trkpt lat="46.40263" lon="6.15699"><ele></ele><time>2024-7-17T18:48:59Z</time></trkpt>
<trkpt lat="46.40257" lon="6.15708"><ele></ele><time>2024-7-17T18:49:2Z</time></trkpt>
<trkpt lat="46.40251" lon="6.15717"><ele></ele><time>2024-7-17T18:49:5Z</time></trkpt>
<trkpt lat="46.40244" lon="6.15726"><ele></ele><time>2024-7-17T18:49:8Z</time></trkpt>
<trkpt lat="46.40238" lon="6.15736"><ele></ele><time>2024-7-17T18:49:11Z</time></trkpt>
<trkpt lat="46.40231" lon="6.15745"><ele></ele><time>2024-7-17T18:49:14Z</time></trkpt>
<trkpt lat="46.40225" lon="6.15754"><ele></ele><time>2024-7-17T18:49:17Z</time></trkpt>
<trkpt lat="46.40219" lon="6.15763"><ele></ele><time>2024-7-17T18:49:20Z</time></trkpt>
<trkpt lat="46.40212" lon="6.15772"><ele></ele><time>2024-7-17T18:49:23Z</time></trkpt>
<trkpt lat="46.40206" lon="6.15781"><ele></ele><time>2024-7-17T18:49:26Z</time></trkpt>
<trkpt lat="46.40198" lon="6.15793"><ele></ele><time>2024-7-17T18:49:29Z</time></trkpt>
<trkpt lat="46.40192" lon="6.15803"><ele></ele><time>2024-7-17T18:49:32Z</time></trkpt>
<trkpt lat="46.40186" lon="6.15813"><ele></ele><time>2024-7-17T18:49:35Z</time></trkpt>
<trkpt lat="46.4018" lon="6.15823"><ele></ele><time>2024-7-17T18:49:38Z</time></trkpt>
<trkpt lat="46.40174" lon="6.15832"><ele></ele><time>2024-7-17T18:49:41Z</time></trkpt>
<trkpt lat="46.40168" lon="6.15842"><ele></ele><time>2024-7-17T18:49:44Z</time></trkpt>
<trkpt lat="46.40162" lon="6.15852"><ele></ele><time>2024-7-17T18:49:47Z</time></trkpt>
<trkpt lat="46.40156" lon="6.15862"><ele></ele><time>2024-7-17T18:49:50Z</time></trkpt>
<trkpt lat="46.4015" lon="6.15871"><ele></ele><time>2024-7-17T18:49:53Z</time></trkpt>
<trkpt lat="46.40144" lon="6.15881"><ele></ele><time>2024-7-17T18:49:56Z</time></trkpt>
<trkpt lat="46.40138" lon="6.15891"><ele></ele><time>2024-7-17T18:49:59Z</time></trkpt>
<trkpt lat="46.40132" lon="6.15901"><ele></ele><time>2024-7-17T18:50:2Z</time></trkpt>
<trkpt lat="46.40126" lon="6.15911"><ele></ele><time>2024-7-17T18:50:5Z</time></trkpt>
<trkpt lat="46.4012" lon="6.15921"><ele></ele><time>2024-7-17T18:50:8Z</time></trkpt>
<trkpt lat="46.40122" lon="6.15934"><ele></ele><time>2024-7-17T18:50:11Z</time></trkpt>
<trkpt lat="46.40125" lon="6.15946"><ele></ele><time>2024-7-17T18:50:14Z</time></trkpt>
<trkpt lat="46.40127" lon="6.15959"><ele></ele><time>2024-7-17T18:50:17Z</time></trkpt>
<trkpt lat="46.4013" lon="6.15971"><ele></ele><time>2024-7-17T18:50:20Z</time></trkpt>
<trkpt lat="46.40132" lon="6.15984"><ele></ele><time>2024-7-17T18:50:23Z</time></trkpt>
<trkpt lat="46.40134" lon="6.15996"><ele></ele><time>2024-7-17T18:50:26Z</time></trkpt>
<trkpt lat="46.40137" lon="6.16009"><ele></ele><time>2024-7-17T18:50:29Z</time></trkpt>
<trkpt lat="46.40139" lon="6.16021"><ele></ele><time>2024-7-17T18:50:32Z</time></trkpt>
<trkpt lat="46.40142" lon="6.16034"><ele></ele><time>2024-7-17T18:50:35Z</time></trkpt>
<trkpt lat="46.40144" lon="6.16046"><ele></ele><time>2024-7-17T18:50:38Z</time></trkpt>
<trkpt lat="46.40147" lon="6.16059"><ele></ele><time>2024-7-17T18:50:41Z</time></trkpt>
<trkpt lat="46.40149" lon="6.16071"><ele></ele><time>2024-7-17T18:50:44Z</time></trkpt>
<trkpt lat="46.40152" lon="6.16084"><ele></ele><time>2024-7-17T18:50:47Z</time></trkpt>
<trkpt lat="46.40154" lon="6.16097"><ele></ele><time>2024-7-17T18:50:50Z</time></trkpt>
<trkpt lat="46.40156" lon="6.16109"><ele></ele><time>2024-7-17T18:50:53Z</time></trkpt>
<trkpt lat="46.40159" lon="6.16121"><ele></ele><time>2024-7-17T18:50:56Z</time></trkpt>
<trkpt lat="46.40161" lon="6.16134"><ele></ele><time>2024-7-17T18:50:59Z</time></trkpt>
<trkpt lat="46.40164" lon="6.16147"><ele></ele><time>2024-7-17T18:51:2Z</time></trkpt>
<trkpt lat="46.40166" lon="6.16159"><ele></ele><time>2024-7-17T18:51:5Z</time></trkpt>
<trkpt lat="46.40169" lon="6.16172"><ele></ele><time>2024-7-17T18:51:8Z</time></trkpt>
<trkpt lat="46.40171" lon="6.16184"><ele></ele><time>2024-7-17T18:51:11Z</time></trkpt>
<trkpt lat="46.40173" lon="6.16197"><ele></ele><time>2024-7-17T18:51:14Z</time></trkpt>
<trkpt lat="46.40176" lon="6.16209"><ele></ele><time>2024-7-17T18:51:17Z</time></trkpt>
<trkpt lat="46.40178" lon="6.16222"><ele></ele><time>2024-7-17T18:51:20Z</time></trkpt>
<trkpt lat="46.40181" lon="6.16234"><ele></ele><time>2024-7-17T18:51:23Z</time></trkpt>
<trkpt lat="46.40183" lon="6.16247"><ele></ele><time>2024-7-17T18:51:26Z</time></trkpt>
<trkpt lat="46.40186" lon="6.16259"><ele></ele><time>2024-7-17T18:51:29Z</time></trkpt>
<trkpt lat="46.40188" lon="6.16272"><ele></ele><time>2024-7-17T18:51:32Z</time></trkpt>
<trkpt lat="46.4019" lon="6.16284"><ele></ele><time>2024-7-17T18:51:35Z</time></trkpt>
<trkpt lat="46.40193" lon="6.16297"><ele></ele><time>2024-7-17T18:51:38Z</time></trkpt>
<trkpt lat="46.40195" lon="6.16309"><ele></ele><time>2024-7-17T18:51:41Z</time></trkpt>
<trkpt lat="46.40198" lon="6.16324"><ele></ele><time>2024-7-17T18:51:44Z</time></trkpt>
<trkpt lat="46.40194" lon="6.16335"><ele></ele><time>2024-7-17T18:51:47Z</time></trkpt>
<trkpt lat="46.4019" lon="6.16347"><ele></ele><time>2024-7-17T18:51:50Z</time></trkpt>
<trkpt lat="46.40186" lon="6.16359"><ele></ele><time>2024-7-17T18:51:53Z</time></trkpt>
<trkpt lat="46.40181" lon="6.16374"><ele></ele><time>2024-7-17T18:51:56Z</time></trkpt>
<trkpt lat="46.40178" lon="6.16386"><ele></ele><time>2024-7-17T18:51:59Z</time></trkpt>
<trkpt lat="46.40176" lon="6.16398"><ele></ele><time>2024-7-17T18:52:2Z</time></trkpt>
<trkpt lat="46.40184" lon="6.16402"><ele></ele><time>2024-7-17T18:52:5Z</time></trkpt>
<trkpt lat="46.40193" lon="6.16406"><ele></ele><time>2024-7-17T18:52:8Z</time></trkpt>
<trkpt lat="46.40201" lon="6.1641"><ele></ele><time>2024-7-17T18:52:11Z</time></trkpt>
<trkpt lat="46.4021" lon="6.16414"><ele></ele><time>2024-7-17T18:52:14Z</time></trkpt>
<trkpt lat="46.40219" lon="6.16418"><ele></ele><time>2024-7-17T18:52:17Z</time></trkpt>
<trkpt lat="46.40227" lon="6.16422"><ele></ele><time>2024-7-17T18:52:20Z</time></trkpt>
<trkpt lat="46.40236" lon="6.16426"><ele></ele><time>2024-7-17T18:52:23Z</time></trkpt>
<trkpt lat="46.40244" lon="6.1643"><ele></ele><time>2024-7-17T18:52:26Z</time></trkpt>
<trkpt lat="46.40253" lon="6.16433"><ele></ele><time>2024-7-17T18:52:29Z</time></trkpt>
<trkpt lat="46.40266" lon="6.16439"><ele></ele><time>2024-7-17T18:52:32Z</time></trkpt>
<trkpt lat="46.40274" lon="6.16446"><ele></ele><time>2024-7-17T18:52:35Z</time></trkpt>
<trkpt lat="46.40282" lon="6.16452"><ele></ele><time>2024-7-17T18:52:38Z</time></trkpt>
<trkpt lat="46.4029" lon="6.16458"><ele></ele><time>2024-7-17T18:52:41Z</time></trkpt>
<trkpt lat="46.40297" lon="6.16465"><ele></ele><time>2024-7-17T18:52:44Z</time></trkpt>
<trkpt lat="46.40304" lon="6.16473"><ele></ele><time>2024-7-17T18:52:47Z</time></trkpt>
<trkpt lat="46.40309" lon="6.16479"><ele></ele><time>2024-7-17T18:52:50Z</time></trkpt>
<trkpt lat="46.40315" lon="6.16488"><ele></ele><time>2024-7-17T18:52:53Z</time></trkpt>
<trkpt lat="46.40321" lon="6.16498"><ele></ele><time>2024-7-17T18:52:56Z</time></trkpt>
<trkpt lat="46.40327" lon="6.16508"><ele></ele><time>2024-7-17T18:52:59Z</time></trkpt>
<trkpt lat="46.40333" lon="6.16517"><ele></ele><time>2024-7-17T18:53:2Z</time></trkpt>
<trkpt lat="46.40339" lon="6.16527"><ele></ele><time>2024-7-17T18:53:5Z</time></trkpt>
<trkpt lat="46.40343" lon="6.16534"><ele></ele><time>2024-7-17T18:53:8Z</time></trkpt>
<trkpt lat="46.40347" lon="6.16545"><ele></ele><time>2024-7-17T18:53:11Z</time></trkpt>
<trkpt lat="46.40352" lon="6.16556"><ele></ele><time>2024-7-17T18:53:14Z</time></trkpt>
<trkpt lat="46.40357" lon="6.16567"><ele></ele><time>2024-7-17T18:53:17Z</time></trkpt>
<trkpt lat="46.40362" lon="6.1658"><ele></ele><time>2024-7-17T18:53:20Z</time></trkpt>
<trkpt lat="46.40365" lon="6.16592"><ele></ele><time>2024-7-17T18:53:23Z</time></trkpt>
<trkpt lat="46.40369" lon="6.16609"><ele></ele><time>2024-7-17T18:53:26Z</time></trkpt>
<trkpt lat="46.40371" lon="6.16621"><ele></ele><time>2024-7-17T18:53:29Z</time></trkpt>
<trkpt lat="46.40373" lon="6.16634"><ele></ele><time>2024-7-17T18:53:32Z</time></trkpt>
<trkpt lat="46.40375" lon="6.16647"><ele></ele><time>2024-7-17T18:53:35Z</time></trkpt>
<trkpt lat="46.40377" lon="6.16659"><ele></ele><time>2024-7-17T18:53:38Z</time></trkpt>
<trkpt lat="46.40379" lon="6.16672"><ele></ele><time>2024-7-17T18:53:41Z</time></trkpt>
<trkpt lat="46.40381" lon="6.16685"><ele></ele><time>2024-7-17T18:53:44Z</time></trkpt>
<trkpt lat="46.40383" lon="6.16697"><ele></ele><time>2024-7-17T18:53:47Z</time></trkpt>
<trkpt lat="46.40384" lon="6.1671"><ele></ele><time>2024-7-17T18:53:50Z</time></trkpt>
<trkpt lat="46.40386" lon="6.16723"><ele></ele><time>2024-7-17T18:53:53Z</time></trkpt>
<trkpt lat="46.40388" lon="6.16735"><ele></ele><time>2024-7-17T18:53:56Z</time></trkpt>
<trkpt lat="46.4039" lon="6.16748"><ele></ele><time>2024-7-17T18:53:59Z</time></trkpt>
<trkpt lat="46.40392" lon="6.16761"><ele></ele><time>2024-7-17T18:54:2Z</time></trkpt>
<trkpt lat="46.40394" lon="6.16773"><ele></ele><time>2024-7-17T18:54:5Z</time></trkpt>
<trkpt lat="46.40396" lon="6.16786"><ele></ele><time>2024-7-17T18:54:8Z</time></trkpt>
<trkpt lat="46.40398" lon="6.16799"><ele></ele><time>2024-7-17T18:54:11Z</time></trkpt>
<trkpt lat="46.404" lon="6.16812"><ele></ele><time>2024-7-17T18:54:14Z</time></trkpt>
<trkpt lat="46.40402" lon="6.16824"><ele></ele><time>2024-7-17T18:54:17Z</time></trkpt>
<trkpt lat="46.40404" lon="6.16837"><ele></ele><time>2024-7-17T18:54:20Z</time></trkpt>
<trkpt lat="46.40406" lon="6.1685"><ele></ele><time>2024-7-17T18:54:23Z</time></trkpt>
<trkpt lat="46.40408" lon="6.16862"><ele></ele><time>2024-7-17T18:54:26Z</time></trkpt>
<trkpt lat="46.4041" lon="6.16875"><ele></ele><time>2024-7-17T18:54:29Z</time></trkpt>
<trkpt lat="46.40412" lon="6.16888"><ele></ele><time>2024-7-17T18:54:32Z</time></trkpt>
<trkpt lat="46.40413" lon="6.16896"><ele></ele><time>2024-7-17T18:54:35Z</time></trkpt>
<trkpt lat="46.40415" lon="6.16909"><ele></ele><time>2024-7-17T18:54:38Z</time></trkpt>
<trkpt lat="46.40418" lon="6.16925"><ele></ele><time>2024-7-17T18:54:41Z</time></trkpt>
<trkpt lat="46.40422" lon="6.16927"><ele></ele><time>2024-7-17T18:54:44Z</time></trkpt>
<trkpt lat="46.40418" lon="6.16925"><ele></ele><time>2024-7-17T18:54:47Z</time></trkpt>
<trkpt lat="46.40412" lon="6.16934"><ele></ele><time>2024-7-17T18:54:50Z</time></trkpt>
<trkpt lat="46.40405" lon="6.16942"><ele></ele><time>2024-7-17T18:54:53Z</time></trkpt>
<trkpt lat="46.40399" lon="6.16951"><ele></ele><time>2024-7-17T18:54:56Z</time></trkpt>
<trkpt lat="46.40392" lon="6.1696"><ele></ele><time>2024-7-17T18:54:59Z</time></trkpt>
<trkpt lat="46.40385" lon="6.16969"><ele></ele><time>2024-7-17T18:55:2Z</time></trkpt>
<trkpt lat="46.40381" lon="6.16975"><ele></ele><time>2024-7-17T18:55:5Z</time></trkpt>
<trkpt lat="46.40372" lon="6.16978"><ele></ele><time>2024-7-17T18:55:8Z</time></trkpt>
<trkpt lat="46.40363" lon="6.16981"><ele></ele><time>2024-7-17T18:55:11Z</time></trkpt>
<trkpt lat="46.40355" lon="6.16984"><ele></ele><time>2024-7-17T18:55:14Z</time></trkpt>
<trkpt lat="46.40348" lon="6.16986"><ele></ele><time>2024-7-17T18:55:17Z</time></trkpt>
<trkpt lat="46.40343" lon="6.16975"><ele></ele><time>2024-7-17T18:55:20Z</time></trkpt>
<trkpt lat="46.40339" lon="6.16963"><ele></ele><time>2024-7-17T18:55:23Z</time></trkpt>
<trkpt lat="46.40335" lon="6.16952"><ele></ele><time>2024-7-17T18:55:26Z</time></trkpt>
<trkpt lat="46.4033" lon="6.16941"><ele></ele><time>2024-7-17T18:55:29Z</time></trkpt>
<trkpt lat="46.40326" lon="6.16929"><ele></ele><time>2024-7-17T18:55:32Z</time></trkpt>
<trkpt lat="46.40321" lon="6.16918"><ele></ele><time>2024-7-17T18:55:35Z</time></trkpt>
<trkpt lat="46.40317" lon="6.16907"><ele></ele><time>2024-7-17T18:55:38Z</time></trkpt>
<trkpt lat="46.40314" lon="6.16897"><ele></ele><time>2024-7-17T18:55:41Z</time></trkpt>
<trkpt lat="46.40307" lon="6.16907"><ele></ele><time>2024-7-17T18:55:44Z</time></trkpt>
<trkpt lat="46.40301" lon="6.16916"><ele></ele><time>2024-7-17T18:55:47Z</time></trkpt>
<trkpt lat="46.40295" lon="6.16926"><ele></ele><time>2024-7-17T18:55:50Z</time></trkpt>
<trkpt lat="46.40289" lon="6.16935"><ele></ele><time>2024-7-17T18:55:53Z</time></trkpt>
<trkpt lat="46.40283" lon="6.16945"><ele></ele><time>2024-7-17T18:55:56Z</time></trkpt>
<trkpt lat="46.40277" lon="6.16954"><ele></ele><time>2024-7-17T18:55:59Z</time></trkpt>
<trkpt lat="46.4027" lon="6.16964"><ele></ele><time>2024-7-17T18:56:2Z</time></trkpt>
<trkpt lat="46.40264" lon="6.16973"><ele></ele><time>2024-7-17T18:56:5Z</time></trkpt>
<trkpt lat="46.40258" lon="6.16983"><ele></ele><time>2024-7-17T18:56:8Z</time></trkpt>
<trkpt lat="46.40252" lon="6.16992"><ele></ele><time>2024-7-17T18:56:11Z</time></trkpt>
<trkpt lat="46.40246" lon="6.17002"><ele></ele><time>2024-7-17T18:56:14Z</time></trkpt>
<trkpt lat="46.4024" lon="6.17011"><ele></ele><time>2024-7-17T18:56:17Z</time></trkpt>
<trkpt lat="46.40234" lon="6.17021"><ele></ele><time>2024-7-17T18:56:20Z</time></trkpt>
<trkpt lat="46.40227" lon="6.1703"><ele></ele><time>2024-7-17T18:56:23Z</time></trkpt>
<trkpt lat="46.40221" lon="6.1704"><ele></ele><time>2024-7-17T18:56:26Z</time></trkpt>
<trkpt lat="46.40215" lon="6.17049"><ele></ele><time>2024-7-17T18:56:29Z</time></trkpt>
<trkpt lat="46.4021" lon="6.17057"><ele></ele><time>2024-7-17T18:56:32Z</time></trkpt>
<trkpt lat="46.40203" lon="6.17064"><ele></ele><time>2024-7-17T18:56:35Z</time></trkpt>
<trkpt lat="46.40195" lon="6.17071"><ele></ele><time>2024-7-17T18:56:38Z</time></trkpt>
<trkpt lat="46.40188" lon="6.17079"><ele></ele><time>2024-7-17T18:56:41Z</time></trkpt>
<trkpt lat="46.40182" lon="6.17084"><ele></ele><time>2024-7-17T18:56:44Z</time></trkpt>
<trkpt lat="46.40177" lon="6.17093"><ele></ele><time>2024-7-17T18:56:47Z</time></trkpt>
<trkpt lat="46.40171" lon="6.17103"><ele></ele><time>2024-7-17T18:56:50Z</time></trkpt>
<trkpt lat="46.40164" lon="6.17114"><ele></ele><time>2024-7-17T18:56:53Z</time></trkpt>
<trkpt lat="46.40157" lon="6.17106"><ele></ele><time>2024-7-17T18:56:56Z</time></trkpt>
<trkpt lat="46.4015" lon="6.17097"><ele></ele><time>2024-7-17T18:56:59Z</time></trkpt>
<trkpt lat="46.40143" lon="6.17089"><ele></ele><time>2024-7-17T18:57:2Z</time></trkpt>
<trkpt lat="46.40136" lon="6.17081"><ele></ele><time>2024-7-17T18:57:5Z</time></trkpt>
<trkpt lat="46.40127" lon="6.17071"><ele></ele><time>2024-7-17T18:57:8Z</time></trkpt>
<trkpt lat="46.40121" lon="6.1708"><ele></ele><time>2024-7-17T18:57:11Z</time></trkpt>
<trkpt lat="46.40114" lon="6.17089"><ele></ele><time>2024-7-17T18:57:14Z</time></trkpt>
<trkpt lat="46.40107" lon="6.17098"><ele></ele><time>2024-7-17T18:57:17Z</time></trkpt>
<trkpt lat="46.40106" lon="6.17108"><ele></ele><time>2024-7-17T18:57:20Z</time></trkpt>
<trkpt lat="46.401" lon="6.17117"><ele></ele><time>2024-7-17T18:57:23Z</time></trkpt>
<trkpt lat="46.40094" lon="6.17129"><ele></ele><time>2024-7-17T18:57:26Z</time></trkpt>
<trkpt lat="46.40104" lon="6.17141"><ele></ele><time>2024-7-17T18:57:29Z</time></trkpt>
<trkpt lat="46.40098" lon="6.17152"><ele></ele><time>2024-7-17T18:57:32Z</time></trkpt>
<trkpt lat="46.40093" lon="6.17161"><ele></ele><time>2024-7-17T18:57:35Z</time></trkpt>
</trkseg></trk></gpx>